ADDS TAF Board (Experimental) INFO Settings

IDs: Format: Expanded Condensed

KPDX - Portland Intl Arpt, OR, US

Issued at 2320 UTC 18 Apr 2015
Updated at: 0105 UTC 19 Apr 2015
Time0053Z 19/02Z 19/03Z 19/04Z 19/05Z 19/06Z 19/07Z 19/08Z 19/09Z 19/10Z 19/11Z 19/12Z 19/13Z 19/14Z
Type OBS PRVL PRVL PRVL PRVL PRVL PRVL PRVL PRVL PRVL PRVL PRVL PRVL PRVL
VIS 10 >6 >6 >6 >6 >6 >6 >6 >6 >6 >6 >6 >6 >6
CIG -- -- -- -- -- -- -- -- -- -- -- -- -- --
Cover FEW SKC SKC SKC SKC SKC SKC SKC SKC SKC SKC SKC SKC SKC
FltCat VFR VFR VFR VFR VFR VFR VFR VFR VFR VFR VFR VFR VFR VFR
WX -- -- -- -- -- -- -- -- -- -- -- -- -- --
WDir 320 310 310 310 310 310 340 340 340 340 340 340 340 340
WSpd 9 12 12 12 12 12 5 5 5 5 5 5 5 5
WGst -- -- -- -- -- -- -- -- -- -- -- -- -- --
R03/21
XWnd 9 12 12 12 12 12 5 5 5 5 5 5 5 5
HWnd 1 -1 -1 -1 -1 -1 2 2 2 2 2 2 2 2
R10/28
XWnd 3 2 2 2 2 2 3 3 3 3 3 3 3 3
HWnd -8 -12 -12 -12 -12 -12 -4 -4 -4 -4 -4 -4 -4 -4

NOTE: TEMPO conditions in [brackets]. Keep in mind TEMPO conditions might be better (lower impact) than prevailing conditions.

Raw TAF
KPDX 182320Z 1900/1924 31012KT P6SM SKC
  FM190700 34005KT P6SM SKC
  FM192200 31012KT P6SM SKC


Raw METAR
KPDX 190053Z 32009KT 10SM FEW250 23/01 A3016 RMK AO2 SLP212 T02280011
KPDX 182353Z 33011KT 10SM FEW250 24/03 A3017 RMK AO2 SLP216 T02390033 10244 20144 56024
KPDX 182253Z 30010KT 10SM FEW250 24/06 A3019 RMK AO2 SLP222 T02390056

METAR Board
Radar Display
Forecast Discussion

TAF Board Legend

Potential Impact
Threat None Slight Moderate High
Visibility (sm) ≥5.1 5.1>X≥3 3>X≥1 <1
Ceiling (100 ft) ≥30.1 30.1>X≥10 10>X≥5 <5
Wind Speed (kt) <10 10≤X<20 20≤X<30 ≥30
Wind Gust (kt) <15 15≤X<25 25≤X<35 ≥35
Weather No Wx Reported VCTS,-TS,-FZRA,SN TS,FZRA +TS,+FZRA,+SN